sensor_id;sensor_type;location;lat;lon;timestamp;pressure;altitude;pressure_sealevel;temperature;humidity
25560;BME280;13450;49.374;8.584;2023-05-22T00:00:18;100049.84;;;17.41;nan
25560;BME280;13450;49.374;8.584;2023-05-22T00:02:43;100043.72;;;17.34;nan
25560;BME280;13450;49.374;8.584;2023-05-22T00:05:14;100047.75;;;17.31;nan
25560;BME280;13450;49.374;8.584;2023-05-22T00:07:42;100037.91;;;17.25;nan
25560;BME280;13450;49.374;8.584;2023-05-22T00:10:10;100042.69;;;17.23;nan
25560;BME280;13450;49.374;8.584;2023-05-22T00:12:36;100038.25;;;17.17;nan
25560;BME280;13450;49.374;8.584;2023-05-22T00:15:01;100029.09;;;17.18;nan
25560;BME280;13450;49.374;8.584;2023-05-22T00:17:28;100032.28;;;17.15;nan
25560;BME280;13450;49.374;8.584;2023-05-22T00:19:55;100027.13;;;17.13;nan
25560;BME280;13450;49.374;8.584;2023-05-22T00:22:20;100024.88;;;17.10;nan
25560;BME280;13450;49.374;8.584;2023-05-22T00:24:46;100033.22;;;17.08;nan
25560;BME280;13450;49.374;8.584;2023-05-22T00:27:11;100030.63;;;17.02;nan
25560;BME280;13450;49.374;8.584;2023-05-22T00:29:37;100030.28;;;16.98;nan
25560;BME280;13450;49.374;8.584;2023-05-22T00:32:02;100029.34;;;16.92;nan
25560;BME280;13450;49.374;8.584;2023-05-22T00:34:28;100027.13;;;16.89;nan
25560;BME280;13450;49.374;8.584;2023-05-22T00:36:53;100029.00;;;16.89;nan
25560;BME280;13450;49.374;8.584;2023-05-22T00:39:18;100031.34;;;16.85;nan
25560;BME280;13450;49.374;8.584;2023-05-22T00:41:46;100033.81;;;16.86;nan
25560;BME280;13450;49.374;8.584;2023-05-22T00:44:12;100033.38;;;16.78;nan
25560;BME280;13450;49.374;8.584;2023-05-22T00:46:39;100031.97;;;16.75;nan
25560;BME280;13450;49.374;8.584;2023-05-22T00:49:05;100041.69;;;16.76;nan
25560;BME280;13450;49.374;8.584;2023-05-22T00:51:30;100033.25;;;16.72;nan
25560;BME280;13450;49.374;8.584;2023-05-22T00:53:57;100033.38;;;16.66;nan
25560;BME280;13450;49.374;8.584;2023-05-22T00:56:23;100038.53;;;16.55;nan
25560;BME280;13450;49.374;8.584;2023-05-22T00:58:51;100035.03;;;16.43;nan
25560;BME280;13450;49.374;8.584;2023-05-22T01:01:16;100033.34;;;16.30;nan
25560;BME280;13450;49.374;8.584;2023-05-22T01:03:43;100036.88;;;16.18;nan
25560;BME280;13450;49.374;8.584;2023-05-22T01:06:15;100027.59;;;16.14;nan
25560;BME280;13450;49.374;8.584;2023-05-22T01:08:42;100031.72;;;16.17;nan
25560;BME280;13450;49.374;8.584;2023-05-22T01:11:17;100031.72;;;16.17;nan
25560;BME280;13450;49.374;8.584;2023-05-22T01:16:39;100024.56;;;16.23;nan
25560;BME280;13450;49.374;8.584;2023-05-22T01:22:10;100022.09;;;16.21;nan
25560;BME280;13450;49.374;8.584;2023-05-22T01:24:57;100033.56;;;16.16;nan
25560;BME280;13450;49.374;8.584;2023-05-22T01:27:38;100033.22;;;16.13;nan
25560;BME280;13450;49.374;8.584;2023-05-22T01:32:42;100029.22;;;16.03;nan
25560;BME280;13450;49.374;8.584;2023-05-22T01:35:10;100033.56;;;16.04;nan
25560;BME280;13450;49.374;8.584;2023-05-22T01:37:39;100032.25;;;16.07;nan
25560;BME280;13450;49.374;8.584;2023-05-22T01:40:07;100036.03;;;16.06;nan
25560;BME280;13450;49.374;8.584;2023-05-22T01:42:33;100037.66;;;16.07;nan
25560;BME280;13450;49.374;8.584;2023-05-22T01:44:58;100036.84;;;16.06;nan
25560;BME280;13450;49.374;8.584;2023-05-22T01:47:24;100045.06;;;16.12;nan
25560;BME280;13450;49.374;8.584;2023-05-22T01:49:49;100043.41;;;16.11;nan
25560;BME280;13450;49.374;8.584;2023-05-22T01:55:13;100049.75;;;16.04;nan
25560;BME280;13450;49.374;8.584;2023-05-22T01:57:51;100047.81;;;15.93;nan
25560;BME280;13450;49.374;8.584;2023-05-22T02:00:22;100058.22;;;15.89;nan
25560;BME280;13450;49.374;8.584;2023-05-22T02:02:56;100056.69;;;15.81;nan
25560;BME280;13450;49.374;8.584;2023-05-22T02:05:23;100056.69;;;15.81;nan
25560;BME280;13450;49.374;8.584;2023-05-22T02:07:51;100065.22;;;15.78;nan
25560;BME280;13450;49.374;8.584;2023-05-22T02:10:20;100064.88;;;15.75;nan
25560;BME280;13450;49.374;8.584;2023-05-22T02:12:46;100056.44;;;15.71;nan
25560;BME280;13450;49.374;8.584;2023-05-22T02:15:12;100061.53;;;15.61;nan
25560;BME280;13450;49.374;8.584;2023-05-22T02:17:38;100059.31;;;15.58;nan
25560;BME280;13450;49.374;8.584;2023-05-22T02:20:11;100055.41;;;15.53;nan
25560;BME280;13450;49.374;8.584;2023-05-22T02:22:44;100059.88;;;15.60;nan
25560;BME280;13450;49.374;8.584;2023-05-22T02:25:12;100066.56;;;15.57;nan
25560;BME280;13450;49.374;8.584;2023-05-22T02:27:45;100055.63;;;15.52;nan
25560;BME280;13450;49.374;8.584;2023-05-22T02:30:12;100054.53;;;15.41;nan
25560;BME280;13450;49.374;8.584;2023-05-22T02:32:38;100056.03;;;15.37;nan
25560;BME280;13450;49.374;8.584;2023-05-22T02:35:04;100061.19;;;15.38;nan
25560;BME280;13450;49.374;8.584;2023-05-22T02:37:30;100060.34;;;15.38;nan
25560;BME280;13450;49.374;8.584;2023-05-22T02:39:56;100062.69;;;15.34;nan
25560;BME280;13450;49.374;8.584;2023-05-22T02:42:21;100060.69;;;15.29;nan
25560;BME280;13450;49.374;8.584;2023-05-22T02:44:47;100061.00;;;15.21;nan
25560;BME280;13450;49.374;8.584;2023-05-22T02:47:12;100054.69;;;15.09;nan
25560;BME280;13450;49.374;8.584;2023-05-22T02:49:37;100061.81;;;15.03;nan
25560;BME280;13450;49.374;8.584;2023-05-22T02:52:03;100060.59;;;14.99;nan
25560;BME280;13450;49.374;8.584;2023-05-22T02:54:33;100058.59;;;14.94;nan
25560;BME280;13450;49.374;8.584;2023-05-22T02:56:58;100061.56;;;14.86;nan
25560;BME280;13450;49.374;8.584;2023-05-22T02:59:24;100061.72;;;14.91;nan
25560;BME280;13450;49.374;8.584;2023-05-22T03:01:49;100057.38;;;14.90;nan
25560;BME280;13450;49.374;8.584;2023-05-22T03:04:15;100067.25;;;14.96;nan
25560;BME280;13450;49.374;8.584;2023-05-22T03:06:42;100065.84;;;14.94;nan
25560;BME280;13450;49.374;8.584;2023-05-22T03:09:09;100066.69;;;14.94;nan
25560;BME280;13450;49.374;8.584;2023-05-22T03:11:35;100068.31;;;14.95;nan
25560;BME280;13450;49.374;8.584;2023-05-22T03:14:03;100071.00;;;14.95;nan
25560;BME280;13450;49.374;8.584;2023-05-22T03:16:30;100066.06;;;14.92;nan
25560;BME280;13450;49.374;8.584;2023-05-22T03:19:17;100072.28;;;14.93;nan
25560;BME280;13450;49.374;8.584;2023-05-22T03:21:43;100067.69;;;14.93;nan
25560;BME280;13450;49.374;8.584;2023-05-22T03:24:09;100074.75;;;14.94;nan
25560;BME280;13450;49.374;8.584;2023-05-22T03:26:35;100081.16;;;14.93;nan
25560;BME280;13450;49.374;8.584;2023-05-22T03:29:00;100083.63;;;14.95;nan
25560;BME280;13450;49.374;8.584;2023-05-22T03:31:28;100080.94;;;14.95;nan
25560;BME280;13450;49.374;8.584;2023-05-22T03:33:55;100085.53;;;14.94;nan
25560;BME280;13450;49.374;8.584;2023-05-22T03:36:20;100089.25;;;14.93;nan
25560;BME280;13450;49.374;8.584;2023-05-22T03:38:47;100090.09;;;14.94;nan
25560;BME280;13450;49.374;8.584;2023-05-22T03:41:12;100097.94;;;14.95;nan
25560;BME280;13450;49.374;8.584;2023-05-22T03:43:37;100091.13;;;14.93;nan
25560;BME280;13450;49.374;8.584;2023-05-22T03:46:02;100099.22;;;14.93;nan
25560;BME280;13450;49.374;8.584;2023-05-22T03:48:28;100089.72;;;14.90;nan
25560;BME280;13450;49.374;8.584;2023-05-22T03:50:53;100090.16;;;14.87;nan
25560;BME280;13450;49.374;8.584;2023-05-22T03:53:18;100092.25;;;14.85;nan
25560;BME280;13450;49.374;8.584;2023-05-22T03:55:46;100092.25;;;14.85;nan
25560;BME280;13450;49.374;8.584;2023-05-22T03:58:11;100084.75;;;14.87;nan
25560;BME280;13450;49.374;8.584;2023-05-22T04:00:36;100092.63;;;14.88;nan
25560;BME280;13450;49.374;8.584;2023-05-22T04:03:02;100089.09;;;14.88;nan
25560;BME280;13450;49.374;8.584;2023-05-22T04:05:28;100091.19;;;14.86;nan
25560;BME280;13450;49.374;8.584;2023-05-22T04:07:55;100092.25;;;14.85;nan
25560;BME280;13450;49.374;8.584;2023-05-22T04:10:21;100096.81;;;14.84;nan
25560;BME280;13450;49.374;8.584;2023-05-22T04:12:47;100096.66;;;14.79;nan
25560;BME280;13450;49.374;8.584;2023-05-22T04:15:13;100097.66;;;14.85;nan
25560;BME280;13450;49.374;8.584;2023-05-22T04:17:39;100096.81;;;14.84;nan
25560;BME280;13450;49.374;8.584;2023-05-22T04:20:07;100096.59;;;14.86;nan
25560;BME280;13450;49.374;8.584;2023-05-22T04:22:32;100099.88;;;14.88;nan
25560;BME280;13450;49.374;8.584;2023-05-22T04:24:58;100099.06;;;14.87;nan
25560;BME280;13450;49.374;8.584;2023-05-22T04:27:23;100103.03;;;14.85;nan
25560;BME280;13450;49.374;8.584;2023-05-22T04:29:49;100102.19;;;14.84;nan
25560;BME280;13450;49.374;8.584;2023-05-22T04:32:16;100109.84;;;14.87;nan
25560;BME280;13450;49.374;8.584;2023-05-22T04:34:47;100104.16;;;14.96;nan
25560;BME280;13450;49.374;8.584;2023-05-22T04:37:13;100107.81;;;15.01;nan
25560;BME280;13450;49.374;8.584;2023-05-22T04:39:43;100102.22;;;15.03;nan
25560;BME280;13450;49.374;8.584;2023-05-22T04:42:15;100112.19;;;15.02;nan
25560;BME280;13450;49.374;8.584;2023-05-22T04:44:41;100107.38;;;15.04;nan
25560;BME280;13450;49.374;8.584;2023-05-22T04:47:07;100111.88;;;15.11;nan
25560;BME280;13450;49.374;8.584;2023-05-22T04:49:36;100111.00;;;15.17;nan
25560;BME280;13450;49.374;8.584;2023-05-22T04:52:02;100115.25;;;15.25;nan
25560;BME280;13450;49.374;8.584;2023-05-22T04:54:30;100116.25;;;15.30;nan
25560;BME280;13450;49.374;8.584;2023-05-22T04:56:55;100111.34;;;15.39;nan
25560;BME280;13450;49.374;8.584;2023-05-22T04:59:20;100111.28;;;15.46;nan
25560;BME280;13450;49.374;8.584;2023-05-22T05:01:48;100108.28;;;15.54;nan
25560;BME280;13450;49.374;8.584;2023-05-22T05:04:14;100117.56;;;15.59;nan
25560;BME280;13450;49.374;8.584;2023-05-22T05:06:40;100107.97;;;15.63;nan
25560;BME280;13450;49.374;8.584;2023-05-22T05:09:09;100114.56;;;15.67;nan
25560;BME280;13450;49.374;8.584;2023-05-22T05:11:35;100117.41;;;15.72;nan
25560;BME280;13450;49.374;8.584;2023-05-22T05:14:00;100114.41;;;15.80;nan
25560;BME280;13450;49.374;8.584;2023-05-22T05:16:26;100118.19;;;15.91;nan
25560;BME280;13450;49.374;8.584;2023-05-22T05:18:53;100111.31;;;15.95;nan
25560;BME280;13450;49.374;8.584;2023-05-22T05:21:19;100111.22;;;16.02;nan
25560;BME280;13450;49.374;8.584;2023-05-22T05:23:47;100110.75;;;16.05;nan
25560;BME280;13450;49.374;8.584;2023-05-22T05:26:13;100104.44;;;16.12;nan
25560;BME280;13450;49.374;8.584;2023-05-22T05:28:38;100101.88;;;16.17;nan
25560;BME280;13450;49.374;8.584;2023-05-22T05:31:03;100115.84;;;16.26;nan
25560;BME280;13450;49.374;8.584;2023-05-22T05:33:29;100109.91;;;16.36;nan
25560;BME280;13450;49.374;8.584;2023-05-22T05:35:54;100117.22;;;16.47;nan
25560;BME280;13450;49.374;8.584;2023-05-22T05:38:21;100124.50;;;16.58;nan
25560;BME280;13450;49.374;8.584;2023-05-22T05:40:50;100116.06;;;16.67;nan
25560;BME280;13450;49.374;8.584;2023-05-22T05:43:15;100117.34;;;16.76;nan
25560;BME280;13450;49.374;8.584;2023-05-22T05:45:41;100111.25;;;16.81;nan
25560;BME280;13450;49.374;8.584;2023-05-22T05:48:10;100111.59;;;16.84;nan
25560;BME280;13450;49.374;8.584;2023-05-22T05:50:41;100119.25;;;16.88;nan
25560;BME280;13450;49.374;8.584;2023-05-22T05:53:09;100122.63;;;16.95;nan
25560;BME280;13450;49.374;8.584;2023-05-22T05:55:35;100119.56;;;17.03;nan
25560;BME280;13450;49.374;8.584;2023-05-22T05:58:00;100122.75;;;17.12;nan
25560;BME280;13450;49.374;8.584;2023-05-22T06:00:25;100120.53;;;17.21;nan
25560;BME280;13450;49.374;8.584;2023-05-22T06:02:53;100125.09;;;17.32;nan
25560;BME280;13450;49.374;8.584;2023-05-22T06:05:20;100123.22;;;17.33;nan
25560;BME280;13450;49.374;8.584;2023-05-22T06:07:48;100125.78;;;17.39;nan
25560;BME280;13450;49.374;8.584;2023-05-22T06:10:16;100127.66;;;17.51;nan
25560;BME280;13450;49.374;8.584;2023-05-22T06:12:41;100124.81;;;17.58;nan
25560;BME280;13450;49.374;8.584;2023-05-22T06:15:07;100132.53;;;17.66;nan
25560;BME280;13450;49.374;8.584;2023-05-22T06:17:35;100126.75;;;17.74;nan
25560;BME280;13450;49.374;8.584;2023-05-22T06:20:07;100133.19;;;17.85;nan
25560;BME280;13450;49.374;8.584;2023-05-22T06:22:33;100131.00;;;17.99;nan
25560;BME280;13450;49.374;8.584;2023-05-22T06:24:58;100129.91;;;18.12;nan
25560;BME280;13450;49.374;8.584;2023-05-22T06:27:23;100132.72;;;18.17;nan
25560;BME280;13450;49.374;8.584;2023-05-22T06:29:51;100130.44;;;18.26;nan
25560;BME280;13450;49.374;8.584;2023-05-22T06:32:17;100134.16;;;18.37;nan
25560;BME280;13450;49.374;8.584;2023-05-22T06:34:46;100135.53;;;18.40;nan
25560;BME280;13450;49.374;8.584;2023-05-22T06:37:12;100131.03;;;18.46;nan
25560;BME280;13450;49.374;8.584;2023-05-22T06:39:38;100133.81;;;18.51;nan
25560;BME280;13450;49.374;8.584;2023-05-22T06:42:04;100131.19;;;18.56;nan
25560;BME280;13450;49.374;8.584;2023-05-22T06:44:30;100132.34;;;18.60;nan
25560;BME280;13450;49.374;8.584;2023-05-22T06:46:55;100135.69;;;18.67;nan
25560;BME280;13450;49.374;8.584;2023-05-22T06:49:21;100133.09;;;18.73;nan
25560;BME280;13450;49.374;8.584;2023-05-22T06:51:46;100129.94;;;18.81;nan
25560;BME280;13450;49.374;8.584;2023-05-22T06:54:14;100133.88;;;18.90;nan
25560;BME280;13450;49.374;8.584;2023-05-22T06:56:40;100128.09;;;19.04;nan
25560;BME280;13450;49.374;8.584;2023-05-22T06:59:05;100135.59;;;19.14;nan
25560;BME280;13450;49.374;8.584;2023-05-22T07:01:30;100141.91;;;19.19;nan
25560;BME280;13450;49.374;8.584;2023-05-22T07:03:59;100133.84;;;19.25;nan
25560;BME280;13450;49.374;8.584;2023-05-22T07:06:25;100136.13;;;19.33;nan
25560;BME280;13450;49.374;8.584;2023-05-22T07:08:51;100144.91;;;19.40;nan
25560;BME280;13450;49.374;8.584;2023-05-22T07:11:16;100140.16;;;19.53;nan
25560;BME280;13450;49.374;8.584;2023-05-22T07:13:41;100144.41;;;19.66;nan
25560;BME280;13450;49.374;8.584;2023-05-22T07:16:07;100149.88;;;19.71;nan
25560;BME280;13450;49.374;8.584;2023-05-22T07:18:32;100151.28;;;19.73;nan
25560;BME280;13450;49.374;8.584;2023-05-22T07:20:58;100151.03;;;19.75;nan
25560;BME280;13450;49.374;8.584;2023-05-22T07:23:23;100146.97;;;19.78;nan
25560;BME280;13450;49.374;8.584;2023-05-22T07:25:48;100149.06;;;19.93;nan
25560;BME280;13450;49.374;8.584;2023-05-22T07:28:14;100156.56;;;20.08;nan
25560;BME280;13450;49.374;8.584;2023-05-22T07:30:39;100144.63;;;20.09;nan
25560;BME280;13450;49.374;8.584;2023-05-22T07:33:05;100146.59;;;20.19;nan
25560;BME280;13450;49.374;8.584;2023-05-22T07:35:30;100151.84;;;20.25;nan
25560;BME280;13450;49.374;8.584;2023-05-22T07:37:56;100150.34;;;20.40;nan
25560;BME280;13450;49.374;8.584;2023-05-22T07:40:21;100147.63;;;20.40;nan
25560;BME280;13450;49.374;8.584;2023-05-22T07:42:47;100151.41;;;20.39;nan
25560;BME280;13450;49.374;8.584;2023-05-22T07:45:14;100153.44;;;20.54;nan
25560;BME280;13450;49.374;8.584;2023-05-22T07:47:40;100158.69;;;20.66;nan
25560;BME280;13450;49.374;8.584;2023-05-22T07:50:06;100159.78;;;20.65;nan
25560;BME280;13450;49.374;8.584;2023-05-22T07:52:31;100161.97;;;20.63;nan
25560;BME280;13450;49.374;8.584;2023-05-22T07:54:57;100164.47;;;20.70;nan
25560;BME280;13450;49.374;8.584;2023-05-22T07:57:22;100164.22;;;20.76;nan
25560;BME280;13450;49.374;8.584;2023-05-22T07:59:48;100162.22;;;20.94;nan
25560;BME280;13450;49.374;8.584;2023-05-22T08:02:16;100169.06;;;21.02;nan
25560;BME280;13450;49.374;8.584;2023-05-22T08:04:41;100161.78;;;21.13;nan
25560;BME280;13450;49.374;8.584;2023-05-22T08:07:06;100164.00;;;21.16;nan
25560;BME280;13450;49.374;8.584;2023-05-22T08:09:32;100167.31;;;21.28;nan
25560;BME280;13450;49.374;8.584;2023-05-22T08:11:57;100170.56;;;21.25;nan
25560;BME280;13450;49.374;8.584;2023-05-22T08:14:22;100171.75;;;21.45;nan
25560;BME280;13450;49.374;8.584;2023-05-22T08:16:50;100174.53;;;21.61;nan
25560;BME280;13450;49.374;8.584;2023-05-22T08:19:15;100171.91;;;21.76;nan
25560;BME280;13450;49.374;8.584;2023-05-22T08:21:46;100161.88;;;21.92;nan
25560;BME280;13450;49.374;8.584;2023-05-22T08:24:11;100174.97;;;21.95;nan
25560;BME280;13450;49.374;8.584;2023-05-22T08:26:36;100168.97;;;22.04;nan
25560;BME280;13450;49.374;8.584;2023-05-22T08:29:02;100166.56;;;22.07;nan
25560;BME280;13450;49.374;8.584;2023-05-22T08:31:28;100176.34;;;22.14;nan
25560;BME280;13450;49.374;8.584;2023-05-22T08:33:54;100164.09;;;22.11;nan
25560;BME280;13450;49.374;8.584;2023-05-22T08:36:29;100159.75;;;22.26;nan
25560;BME280;13450;49.374;8.584;2023-05-22T08:38:55;100165.50;;;22.29;nan
25560;BME280;13450;49.374;8.584;2023-05-22T08:41:20;100162.25;;;22.43;nan
25560;BME280;13450;49.374;8.584;2023-05-22T08:43:46;100160.88;;;22.66;nan
25560;BME280;13450;49.374;8.584;2023-05-22T08:46:12;100164.69;;;22.91;nan
25560;BME280;13450;49.374;8.584;2023-05-22T08:48:40;100162.19;;;23.16;nan
25560;BME280;13450;49.374;8.584;2023-05-22T08:51:12;100156.72;;;23.21;nan
25560;BME280;13450;49.374;8.584;2023-05-22T08:53:40;100165.38;;;23.49;nan
25560;BME280;13450;49.374;8.584;2023-05-22T08:56:09;100157.09;;;23.75;nan
25560;BME280;13450;49.374;8.584;2023-05-22T08:58:37;100154.88;;;23.77;nan
25560;BME280;13450;49.374;8.584;2023-05-22T09:01:04;100150.69;;;23.95;nan
25560;BME280;13450;49.374;8.584;2023-05-22T09:03:29;100156.88;;;24.16;nan
25560;BME280;13450;49.374;8.584;2023-05-22T09:05:58;100151.78;;;24.39;nan
25560;BME280;13450;49.374;8.584;2023-05-22T09:08:24;100151.56;;;24.65;nan
25560;BME280;13450;49.374;8.584;2023-05-22T09:10:49;100159.03;;;24.89;nan
25560;BME280;13450;49.374;8.584;2023-05-22T09:13:38;100153.56;;;24.89;nan
25560;BME280;13450;49.374;8.584;2023-05-22T09:16:11;100151.09;;;24.93;nan
25560;BME280;13450;49.374;8.584;2023-05-22T09:18:38;100158.81;;;24.80;nan
25560;BME280;13450;49.374;8.584;2023-05-22T09:21:05;100157.19;;;24.79;nan
25560;BME280;13450;49.374;8.584;2023-05-22T09:23:33;100157.59;;;24.97;nan
25560;BME280;13450;49.374;8.584;2023-05-22T09:26:00;100157.44;;;24.83;nan
25560;BME280;13450;49.374;8.584;2023-05-22T09:28:26;100160.63;;;24.96;nan
25560;BME280;13450;49.374;8.584;2023-05-22T09:30:54;100151.47;;;24.76;nan
25560;BME280;13450;49.374;8.584;2023-05-22T09:33:21;100158.13;;;24.99;nan
25560;BME280;13450;49.374;8.584;2023-05-22T09:35:47;100156.22;;;25.00;nan
25560;BME280;13450;49.374;8.584;2023-05-22T09:38:13;100157.59;;;25.46;nan
25560;BME280;13450;49.374;8.584;2023-05-22T09:40:40;100151.75;;;25.53;nan
25560;BME280;13450;49.374;8.584;2023-05-22T09:43:06;100156.13;;;25.59;nan
25560;BME280;13450;49.374;8.584;2023-05-22T09:45:36;100158.78;;;25.64;nan
25560;BME280;13450;49.374;8.584;2023-05-22T09:48:05;100162.13;;;25.80;nan
25560;BME280;13450;49.374;8.584;2023-05-22T09:50:37;100149.84;;;25.78;nan
25560;BME280;13450;49.374;8.584;2023-05-22T09:53:04;100150.59;;;25.83;nan
25560;BME280;13450;49.374;8.584;2023-05-22T09:55:30;100145.25;;;26.11;nan
25560;BME280;13450;49.374;8.584;2023-05-22T09:57:56;100143.84;;;26.14;nan
25560;BME280;13450;49.374;8.584;2023-05-22T10:00:25;100136.41;;;26.34;nan
25560;BME280;13450;49.374;8.584;2023-05-22T10:03:07;100142.59;;;26.59;nan
25560;BME280;13450;49.374;8.584;2023-05-22T10:05:42;100144.22;;;26.60;nan
25560;BME280;13450;49.374;8.584;2023-05-22T10:08:14;100143.78;;;26.53;nan
25560;BME280;13450;49.374;8.584;2023-05-22T10:10:42;100150.28;;;26.57;nan
25560;BME280;13450;49.374;8.584;2023-05-22T10:13:11;100146.47;;;26.58;nan
25560;BME280;13450;49.374;8.584;2023-05-22T10:15:40;100149.00;;;26.68;nan
25560;BME280;13450;49.374;8.584;2023-05-22T10:18:05;100147.06;;;26.55;nan
25560;BME280;13450;49.374;8.584;2023-05-22T10:20:31;100141.44;;;26.46;nan
25560;BME280;13450;49.374;8.584;2023-05-22T10:22:57;100137.25;;;26.82;nan
25560;BME280;13450;49.374;8.584;2023-05-22T10:25:23;100137.75;;;26.84;nan
25560;BME280;13450;49.374;8.584;2023-05-22T10:27:56;100129.66;;;27.07;nan
25560;BME280;13450;49.374;8.584;2023-05-22T10:33:24;100134.72;;;27.55;nan
25560;BME280;13450;49.374;8.584;2023-05-22T10:36:15;100131.06;;;27.60;nan
25560;BME280;13450;49.374;8.584;2023-05-22T10:41:33;100124.34;;;28.03;nan
25560;BME280;13450;49.374;8.584;2023-05-22T10:44:01;100124.88;;;28.28;nan
25560;BME280;13450;49.374;8.584;2023-05-22T10:46:31;100121.25;;;28.42;nan
25560;BME280;13450;49.374;8.584;2023-05-22T10:48:57;100120.44;;;28.41;nan
25560;BME280;13450;49.374;8.584;2023-05-22T10:51:22;100118.00;;;28.17;nan
25560;BME280;13450;49.374;8.584;2023-05-22T10:53:56;100116.72;;;28.23;nan
25560;BME280;13450;49.374;8.584;2023-05-22T10:56:22;100115.50;;;28.06;nan
25560;BME280;13450;49.374;8.584;2023-05-22T10:58:55;100118.09;;;28.57;nan
25560;BME280;13450;49.374;8.584;2023-05-22T11:01:28;100114.94;;;28.73;nan
25560;BME280;13450;49.374;8.584;2023-05-22T11:06:39;100116.91;;;29.80;nan
25560;BME280;13450;49.374;8.584;2023-05-22T11:09:31;100110.69;;;30.36;nan
25560;BME280;13450;49.374;8.584;2023-05-22T11:17:26;100096.69;;;34.29;nan
25560;BME280;13450;49.374;8.584;2023-05-22T11:20:23;100102.19;;;35.42;nan
25560;BME280;13450;49.374;8.584;2023-05-22T11:23:00;100096.38;;;35.31;nan
25560;BME280;13450;49.374;8.584;2023-05-22T11:25:26;100092.00;;;36.09;nan
25560;BME280;13450;49.374;8.584;2023-05-22T11:27:53;100098.19;;;35.99;nan
25560;BME280;13450;49.374;8.584;2023-05-22T11:30:25;100088.31;;;36.68;nan
25560;BME280;13450;49.374;8.584;2023-05-22T11:32:51;100090.56;;;37.13;nan
25560;BME280;13450;49.374;8.584;2023-05-22T11:35:18;100088.81;;;37.01;nan
25560;BME280;13450;49.374;8.584;2023-05-22T11:37:44;100085.50;;;37.49;nan
25560;BME280;13450;49.374;8.584;2023-05-22T11:40:15;100083.78;;;37.37;nan
25560;BME280;13450;49.374;8.584;2023-05-22T11:42:44;100076.91;;;37.04;nan
25560;BME280;13450;49.374;8.584;2023-05-22T11:45:10;100078.69;;;37.77;nan
25560;BME280;13450;49.374;8.584;2023-05-22T11:47:36;100072.47;;;37.61;nan
25560;BME280;13450;49.374;8.584;2023-05-22T11:50:01;100078.75;;;37.20;nan
25560;BME280;13450;49.374;8.584;2023-05-22T11:52:34;100069.31;;;36.74;nan
25560;BME280;13450;49.374;8.584;2023-05-22T11:55:00;100069.69;;;36.06;nan
25560;BME280;13450;49.374;8.584;2023-05-22T11:57:29;100065.94;;;35.19;nan
25560;BME280;13450;49.374;8.584;2023-05-22T11:59:56;100061.28;;;35.82;nan
25560;BME280;13450;49.374;8.584;2023-05-22T12:02:22;100055.72;;;36.69;nan
25560;BME280;13450;49.374;8.584;2023-05-22T12:04:52;100057.31;;;36.70;nan
25560;BME280;13450;49.374;8.584;2023-05-22T12:07:20;100056.75;;;37.41;nan
25560;BME280;13450;49.374;8.584;2023-05-22T12:09:47;100056.69;;;38.06;nan
25560;BME280;13450;49.374;8.584;2023-05-22T12:12:14;100048.25;;;38.03;nan
25560;BME280;13450;49.374;8.584;2023-05-22T12:14:43;100039.00;;;39.74;nan
25560;BME280;13450;49.374;8.584;2023-05-22T12:17:12;100040.50;;;39.39;nan
25560;BME280;13450;49.374;8.584;2023-05-22T12:19:41;100032.22;;;39.79;nan
25560;BME280;13450;49.374;8.584;2023-05-22T12:22:10;100032.28;;;40.66;nan
25560;BME280;13450;49.374;8.584;2023-05-22T12:27:07;100028.53;;;41.24;nan
25560;BME280;13450;49.374;8.584;2023-05-22T12:29:33;100032.53;;;41.23;nan
25560;BME280;13450;49.374;8.584;2023-05-22T12:32:01;100029.50;;;41.78;nan
25560;BME280;13450;49.374;8.584;2023-05-22T12:34:31;100033.00;;;42.46;nan
25560;BME280;13450;49.374;8.584;2023-05-22T12:36:57;100027.25;;;42.15;nan
25560;BME280;13450;49.374;8.584;2023-05-22T12:39:22;100024.75;;;41.67;nan
25560;BME280;13450;49.374;8.584;2023-05-22T12:41:50;100033.75;;;42.54;nan
25560;BME280;13450;49.374;8.584;2023-05-22T12:44:15;100029.66;;;41.45;nan
25560;BME280;13450;49.374;8.584;2023-05-22T12:46:41;100033.25;;;42.13;nan
25560;BME280;13450;49.374;8.584;2023-05-22T12:49:06;100031.34;;;42.52;nan
25560;BME280;13450;49.374;8.584;2023-05-22T12:51:33;100035.22;;;41.56;nan
25560;BME280;13450;49.374;8.584;2023-05-22T12:53:59;100029.66;;;42.58;nan
25560;BME280;13450;49.374;8.584;2023-05-22T12:56:24;100026.19;;;42.85;nan
25560;BME280;13450;49.374;8.584;2023-05-22T12:58:50;100025.50;;;43.12;nan
25560;BME280;13450;49.374;8.584;2023-05-22T13:01:16;100018.41;;;41.52;nan
25560;BME280;13450;49.374;8.584;2023-05-22T13:03:41;100020.19;;;42.83;nan
25560;BME280;13450;49.374;8.584;2023-05-22T13:06:06;100016.34;;;42.24;nan
25560;BME280;13450;49.374;8.584;2023-05-22T13:08:32;100016.97;;;42.43;nan
25560;BME280;13450;49.374;8.584;2023-05-22T13:10:57;100016.03;;;42.95;nan
25560;BME280;13450;49.374;8.584;2023-05-22T13:13:22;100011.63;;;43.60;nan
25560;BME280;13450;49.374;8.584;2023-05-22T13:15:48;100014.19;;;42.81;nan
25560;BME280;13450;49.374;8.584;2023-05-22T13:18:13;100004.91;;;42.46;nan
25560;BME280;13450;49.374;8.584;2023-05-22T13:20:39;100003.91;;;41.65;nan
25560;BME280;13450;49.374;8.584;2023-05-22T13:23:04;100007.53;;;41.62;nan
25560;BME280;13450;49.374;8.584;2023-05-22T13:25:32;100000.25;;;40.75;nan
25560;BME280;13450;49.374;8.584;2023-05-22T13:27:58;100002.84;;;41.37;nan
25560;BME280;13450;49.374;8.584;2023-05-22T13:30:26;100002.13;;;41.14;nan
25560;BME280;13450;49.374;8.584;2023-05-22T13:32:52;99996.88;;;41.99;nan
25560;BME280;13450;49.374;8.584;2023-05-22T13:35:17;99999.38;;;41.86;nan
25560;BME280;13450;49.374;8.584;2023-05-22T13:37:48;100004.25;;;42.31;nan